Time;durP1;ratioP1;P1;durP2;ratioP2;P2;SDS_P1;SDS_P2;PMS_P1;PMS_P2;Temp;Humidity;BMP_temperature;BMP_pressure;BME280_temperature;BME280_humidity;BME280_pressure;Samples;Min_cycle;Max_cycle;Signal;HPM_P1;HPM_P2
2021/11/12 00:11:54;;;;;;;47.75;20.20;;;;;;;2.94;76.74;99259.91;5106861;28;20515;-69
2021/11/12 00:14:24;;;;;;;41.50;18.95;;;;;;;2.96;76.59;99255.94;5106728;28;20126;-70
2021/11/12 00:16:51;;;;;;;40.97;19.05;;;;;;;2.94;76.55;99259.91;5106259;28;20028;-69
2021/11/12 00:19:18;;;;;;;44.42;20.05;;;;;;;2.93;76.69;99253.69;5087998;28;20050;-69
2021/11/12 00:21:45;;;;;;;45.35;19.35;;;;;;;2.91;76.05;99263.06;5106594;28;20024;-69
2021/11/12 00:24:10;;;;;;;41.00;18.42;;;;;;;2.88;75.68;99258.94;5106883;28;20016;-67
2021/11/12 00:26:36;;;;;;;40.67;19.42;;;;;;;2.86;75.56;99255.63;5105269;28;20489;-69
2021/11/12 00:29:02;;;;;;;45.50;20.05;;;;;;;2.84;76.27;99257.75;5104708;28;20043;-69
2021/11/12 00:39:17;;;;;;;42.35;19.58;;;;;;;2.81;75.58;99258.19;5106859;28;20126;-68
2021/11/12 00:41:49;;;;;;;48.70;20.23;;;;;;;2.79;75.62;99252.16;5091502;28;20028;-67
2021/11/12 00:49:41;;;;;;;41.70;19.30;;;;;;;2.75;75.71;99257.22;5035643;28;20049;-68
2021/11/12 00:52:14;;;;;;;42.90;19.57;;;;;;;2.74;76.26;99254.72;5090904;28;20533;-68
2021/11/12 00:54:39;;;;;;;45.17;20.23;;;;;;;2.72;76.25;99248.69;5090003;28;20283;-68
2021/11/12 00:57:05;;;;;;;47.85;21.58;;;;;;;2.73;76.29;99255.78;5091848;28;20020;-68
2021/11/12 00:59:30;;;;;;;45.28;20.88;;;;;;;2.75;76.98;99264.50;5073357;28;20053;-68
2021/11/12 01:01:57;;;;;;;43.20;19.77;;;;;;;2.78;76.38;99264.91;5091951;28;20020;-68
2021/11/12 01:04:23;;;;;;;45.63;20.45;;;;;;;2.83;76.76;99267.78;5073643;28;20024;-68
2021/11/12 01:06:50;;;;;;;46.53;20.98;;;;;;;2.96;76.62;99261.38;5091585;28;20025;-68
2021/11/12 01:09:18;;;;;;;43.28;19.95;;;;;;;3.12;77.27;99259.06;5088432;28;20028;-68
2021/11/12 01:11:46;;;;;;;48.70;21.50;;;;;;;3.23;77.09;99263.75;5091624;28;20024;-69
2021/11/12 01:14:16;;;;;;;47.47;21.38;;;;;;;3.32;76.68;99266.97;5074846;28;20400;-69
2021/11/12 01:16:41;;;;;;;56.22;26.17;;;;;;;3.43;76.71;99258.06;5091763;28;20039;-69
2021/11/12 01:19:08;;;;;;;52.65;25.52;;;;;;;3.53;76.36;99254.78;5072765;28;20533;-68
2021/11/12 01:21:34;;;;;;;45.92;22.65;;;;;;;3.61;76.72;99255.53;5086334;28;21441;-67
2021/11/12 01:23:59;;;;;;;45.65;21.38;;;;;;;3.64;76.03;99260.47;5090370;28;20479;-67
2021/11/12 01:26:26;;;;;;;54.00;26.17;;;;;;;3.70;76.55;99243.28;5089638;28;20012;-67
2021/11/12 01:28:52;;;;;;;50.22;24.42;;;;;;;3.75;76.82;99251.56;5071796;28;20055;-67
2021/11/12 01:31:22;;;;;;;49.67;22.92;;;;;;;3.76;75.74;99246.94;5091576;28;20058;-67
2021/11/12 01:33:47;;;;;;;48.80;21.25;;;;;;;3.80;76.52;99245.44;5091432;28;20464;-69
2021/11/12 01:38:38;;;;;;;157.23;45.35;;;;;;;3.82;76.33;99235.16;5090995;28;20492;-69
2021/11/12 01:41:04;;;;;;;156.90;46.92;;;;;;;3.85;76.07;99235.56;5091463;28;20028;-69
2021/11/12 01:43:37;;;;;;;201.32;54.58;;;;;;;3.88;75.85;99229.63;5091462;28;20028;-69
2021/11/12 01:53:49;;;;;;;130.77;45.08;;;;;;;4.09;76.58;99232.84;5040926;28;20047;-70
2021/11/12 02:01:32;;;;;;;101.20;35.08;;;;;;;4.28;76.43;99222.72;5090715;28;20035;-70
2021/11/12 02:03:57;;;;;;;82.57;30.38;;;;;;;4.35;76.23;99222.59;5089289;28;20070;-69
2021/11/12 02:06:23;;;;;;;91.18;34.20;;;;;;;4.43;75.98;99224.97;5073372;28;20032;-69
2021/11/12 02:08:50;;;;;;;105.60;39.70;;;;;;;4.48;76.31;99216.13;5090790;28;20028;-70
2021/11/12 02:11:17;;;;;;;117.43;40.72;;;;;;;4.57;75.83;99211.94;5090856;28;20020;-70
2021/11/12 02:13:44;;;;;;;74.45;31.05;;;;;;;4.68;75.90;99214.88;5091127;28;20035;-69
2021/11/12 02:16:14;;;;;;;62.95;26.75;;;;;;;4.73;75.64;99204.94;5089888;28;20020;-67
2021/11/12 02:18:42;;;;;;;71.95;28.48;;;;;;;4.76;76.22;99212.63;5089297;28;20498;-68
2021/11/12 02:21:16;;;;;;;70.82;29.77;;;;;;;4.77;75.47;99203.41;5085310;28;20028;-67
2021/11/12 02:23:46;;;;;;;69.75;28.98;;;;;;;4.86;76.12;99205.75;5071712;28;20392;-67
2021/11/12 02:26:19;;;;;;;62.50;28.60;;;;;;;4.91;75.53;99200.44;5091767;28;20085;-67
2021/11/12 02:28:46;;;;;;;64.45;29.42;;;;;;;4.99;75.94;99199.22;5088646;28;20566;-66
2021/11/12 02:31:12;;;;;;;58.90;27.35;;;;;;;5.05;75.30;99199.09;5091318;28;20028;-67
2021/11/12 02:33:38;;;;;;;59.45;28.13;;;;;;;5.07;75.61;99196.97;5091135;28;20020;-68
2021/11/12 02:36:13;;;;;;;56.50;26.45;;;;;;;5.13;75.59;99191.59;5090655;28;20585;-68
2021/11/12 02:38:42;;;;;;;56.10;26.65;;;;;;;5.17;75.03;99188.16;5089698;28;20031;-67
2021/11/12 02:41:08;;;;;;;64.90;28.40;;;;;;;5.17;75.30;99196.34;5091564;28;20028;-67
2021/11/12 02:43:35;;;;;;;52.42;23.95;;;;;;;5.12;75.31;99185.34;5088413;28;20353;-69
2021/11/12 02:46:02;;;;;;;49.65;23.67;;;;;;;5.06;74.95;99181.72;5088623;28;20055;-69
2021/11/12 02:48:33;;;;;;;48.70;23.10;;;;;;;5.05;75.02;99187.38;5082060;28;20045;-69
2021/11/12 02:50:59;;;;;;;45.00;21.65;;;;;;;5.02;74.69;99188.69;5090097;28;20545;-69
2021/11/12 02:53:24;;;;;;;55.97;25.48;;;;;;;4.97;74.59;99185.03;5085571;28;20020;-70
2021/11/12 02:55:50;;;;;;;59.40;28.77;;;;;;;4.91;74.79;99195.00;5086948;28;20035;-70
2021/11/12 02:58:16;;;;;;;60.50;27.58;;;;;;;4.89;74.88;99191.69;5089894;28;20081;-69
2021/11/12 03:00:43;;;;;;;62.72;29.20;;;;;;;4.87;74.52;99189.22;5090983;28;20473;-69
2021/11/12 03:03:09;;;;;;;58.60;27.08;;;;;;;4.89;74.82;99191.69;5089230;28;20472;-69
2021/11/12 03:05:35;;;;;;;66.57;31.02;;;;;;;4.84;74.94;99183.44;5090673;28;20031;-69
2021/11/12 03:08:01;;;;;;;82.05;36.38;;;;;;;4.85;75.14;99194.06;5085615;28;20499;-69
2021/11/12 03:10:27;;;;;;;79.85;36.05;;;;;;;4.92;74.94;99185.78;5071028;28;20036;-69
2021/11/12 03:12:53;;;;;;;79.68;35.50;;;;;;;4.96;74.67;99183.38;5090489;28;20035;-70
2021/11/12 03:15:19;;;;;;;75.90;33.50;;;;;;;4.94;74.52;99180.06;5090303;28;20028;-68
2021/11/12 03:17:47;;;;;;;77.25;35.85;;;;;;;4.90;74.79;99175.13;5089523;28;20177;-68
2021/11/12 03:20:14;;;;;;;73.07;34.03;;;;;;;4.87;74.37;99186.50;5071934;28;20064;-68
2021/11/12 03:22:47;;;;;;;77.35;35.47;;;;;;;4.84;74.43;99178.84;5090705;28;20055;-69
2021/11/12 03:25:25;;;;;;;74.38;35.30;;;;;;;4.84;74.39;99183.44;5087889;28;20020;-69
2021/11/12 03:28:08;;;;;;;73.53;34.22;;;;;;;4.73;73.82;99188.66;5087562;28;20024;-69
2021/11/12 03:49:54;;;;;;;67.03;31.10;;;;;;;4.56;74.53;99195.91;5088954;28;20032;-69
2021/11/12 04:03:05;;;;;;;72.85;34.90;;;;;;;4.66;74.21;99201.56;5088007;28;20044;-69
2021/11/12 05:10:45;;;;;;;78.18;36.13;;;;;;;4.94;73.89;99218.97;5092607;28;20039;-69
2021/11/12 05:56:06;;;;;;;100.28;41.30;;;;;;;5.04;74.12;99246.38;5090680;28;20039;-68
2021/11/12 05:58:32;;;;;;;102.65;43.88;;;;;;;5.03;74.13;99243.88;5091068;28;20020;-68
2021/11/12 06:00:58;;;;;;;99.90;43.40;;;;;;;5.07;73.85;99250.50;5091659;28;20028;-68
2021/11/12 06:03:24;;;;;;;110.35;46.25;;;;;;;5.10;74.05;99244.59;5091430;28;20070;-67
2021/11/12 06:05:49;;;;;;;106.20;44.50;;;;;;;5.13;74.23;99245.97;5092061;28;20393;-68
2021/11/12 06:08:16;;;;;;;100.25;43.38;;;;;;;5.11;73.86;99251.69;5091029;28;20028;-68
2021/11/12 06:10:42;;;;;;;98.85;43.33;;;;;;;5.03;73.91;99250.16;5073523;28;20451;-69
2021/11/12 06:13:08;;;;;;;113.78;47.78;;;;;;;4.97;73.88;99245.69;5073350;28;20081;-68
2021/11/12 06:15:34;;;;;;;105.13;43.13;;;;;;;4.96;73.28;99252.19;5088760;28;20032;-69
2021/11/12 06:18:00;;;;;;;99.60;41.88;;;;;;;4.94;73.40;99240.72;5091399;28;20020;-68
2021/11/12 06:20:26;;;;;;;100.78;41.55;;;;;;;4.93;73.46;99249.94;5091713;28;20024;-69
2021/11/12 06:22:52;;;;;;;106.63;45.72;;;;;;;4.90;73.98;99262.09;5090355;28;20078;-68
2021/11/12 06:25:17;;;;;;;105.90;51.33;;;;;;;4.88;73.34;99263.44;5090944;28;20024;-68
2021/11/12 06:27:43;;;;;;;111.78;54.72;;;;;;;4.89;73.95;99263.19;5088850;28;20122;-69
2021/11/12 06:30:10;;;;;;;127.82;64.57;;;;;;;4.89;73.66;99267.78;5072118;28;20036;-69
2021/11/12 06:32:36;;;;;;;126.95;65.55;;;;;;;4.95;73.68;99261.41;5073033;28;20111;-69
2021/11/12 06:35:02;;;;;;;136.02;75.57;;;;;;;5.04;73.95;99270.00;5090902;28;20028;-69
2021/11/12 06:37:28;;;;;;;123.78;62.90;;;;;;;5.04;73.72;99268.13;5090726;28;20464;-69
2021/11/12 06:39:53;;;;;;;113.72;52.38;;;;;;;5.03;74.04;99271.06;5090540;28;20027;-69
2021/11/12 06:42:20;;;;;;;101.18;46.45;;;;;;;5.09;73.68;99263.88;5090546;28;20031;-69
2021/11/12 06:50:16;;;;;;;100.43;46.65;;;;;;;5.18;74.09;99274.13;5091280;28;20148;-68
2021/11/12 06:52:45;;;;;;;102.40;43.65;;;;;;;5.25;74.36;99268.53;5073542;28;20413;-70
2021/11/12 06:55:13;;;;;;;98.55;43.35;;;;;;;5.20;73.95;99272.00;5069794;28;20114;-69
2021/11/12 06:57:41;;;;;;;100.13;44.00;;;;;;;5.22;73.89;99267.13;5091108;28;20072;-69
2021/11/12 07:00:11;;;;;;;98.88;42.85;;;;;;;5.23;74.11;99265.22;5090383;28;20039;-69
2021/11/12 07:02:36;;;;;;;;;;;;;;;5.25;73.94;99271.25;5091367;28;20387;-69
2021/11/12 07:05:03;;;;;;;94.75;40.97;;;;;;;5.28;73.93;99270.78;5090824;28;19916;-69
2021/11/12 07:07:28;;;;;;;86.35;38.50;;;;;;;5.29;73.65;99269.72;5072172;28;20028;-69
2021/11/12 07:09:54;;;;;;;96.63;43.17;;;;;;;5.29;73.48;99275.16;5090374;28;20028;-70
2021/11/12 07:12:20;;;;;;;97.93;45.25;;;;;;;5.31;73.62;99272.19;5091135;28;20035;-70
2021/11/12 07:14:45;;;;;;;105.68;46.60;;;;;;;5.35;73.86;99271.47;5090968;28;20053;-69
2021/11/12 07:17:12;;;;;;;103.85;45.10;;;;;;;5.35;73.40;99270.63;5089799;28;20036;-69
2021/11/12 07:19:38;;;;;;;98.10;44.08;;;;;;;5.36;73.61;99275.00;5090763;28;20038;-70
2021/11/12 07:22:04;;;;;;;101.47;44.40;;;;;;;5.40;73.91;99275.38;5089938;28;20121;-69
2021/11/12 07:24:30;;;;;;;100.43;44.50;;;;;;;5.33;73.85;99267.31;5090283;28;20107;-69
2021/11/12 07:26:56;;;;;;;107.80;47.25;;;;;;;5.33;73.96;99265.44;5090599;28;20016;-69
2021/11/12 07:29:24;;;;;;;113.80;48.00;;;;;;;5.32;73.61;99269.22;5089679;28;20044;-69
2021/11/12 07:31:50;;;;;;;130.75;53.35;;;;;;;5.34;73.71;99267.09;5090468;28;20729;-68
2021/11/12 07:34:16;;;;;;;122.60;51.05;;;;;;;5.32;73.60;99268.38;5072421;28;20044;-69
2021/11/12 07:36:52;;;;;;;129.05;53.33;;;;;;;5.31;73.49;99262.13;5090688;28;20031;-69
2021/11/12 07:39:52;;;;;;;115.30;52.08;;;;;;;5.33;73.53;99256.44;5072632;28;20401;-68
2021/11/12 07:42:17;;;;;;;127.03;55.88;;;;;;;5.34;73.85;99264.38;5087354;28;20035;-69
2021/11/12 07:47:20;;;;;;;135.13;56.50;;;;;;;5.33;74.29;99270.03;5090251;28;20543;-69
2021/11/12 07:49:50;;;;;;;115.55;52.28;;;;;;;5.33;73.67;99268.16;5090204;28;20039;-68
2021/11/12 07:52:19;;;;;;;119.80;54.58;;;;;;;5.39;74.16;99260.91;5076270;28;20039;-69
2021/11/12 07:54:46;;;;;;;130.95;57.38;;;;;;;5.50;74.44;99254.63;5093884;28;20473;-68
2021/11/12 07:57:12;;;;;;;123.68;52.72;;;;;;;5.58;74.05;99253.38;5094308;28;20028;-68
2021/11/12 07:59:39;;;;;;;130.10;58.47;;;;;;;5.60;74.08;99247.72;5094488;28;20376;-69
2021/11/12 08:02:06;;;;;;;130.70;54.70;;;;;;;5.69;74.33;99251.69;5093525;28;20031;-68
2021/11/12 08:04:31;;;;;;;131.75;57.35;;;;;;;5.76;73.87;99251.53;5093299;28;20514;-69
2021/11/12 08:06:59;;;;;;;97.40;44.55;;;;;;;5.81;73.93;99252.44;5094928;28;20016;-69
2021/11/12 08:09:29;;;;;;;99.72;42.63;;;;;;;5.88;74.00;99255.03;5093629;28;20024;-70
2021/11/12 08:12:06;;;;;;;93.63;44.15;;;;;;;5.86;73.83;99250.88;5094368;28;20115;-70
2021/11/12 08:14:38;;;;;;;107.43;45.45;;;;;;;5.84;73.92;99248.41;5094127;28;20020;-69
2021/11/12 08:17:23;;;;;;;98.03;45.22;;;;;;;5.80;73.40;99241.81;5094630;28;20106;-67
2021/11/12 08:22:35;;;;;;;74.43;36.28;;;;;;;5.70;73.42;99233.47;5099805;28;20036;-67
2021/11/12 08:33:19;;;;;;;80.97;36.03;;;;;;;5.89;73.56;99237.63;5072754;28;20039;-70
2021/11/12 08:38:37;;;;;;;83.60;37.42;;;;;;;5.97;73.45;99236.38;5093958;28;20032;-70
2021/11/12 08:43:39;;;;;;;87.85;40.97;;;;;;;6.02;73.65;99224.78;5094718;28;20032;-69
2021/11/12 08:51:17;;;;;;;92.40;41.42;;;;;;;6.10;73.90;99230.66;5093931;28;20387;-68
2021/11/12 08:53:44;;;;;;;94.45;41.78;;;;;;;6.20;74.05;99238.16;5085556;28;20031;-68
2021/11/12 08:56:13;;;;;;;121.95;52.88;;;;;;;6.29;73.73;99232.28;5093216;28;20097;-69
2021/11/12 08:58:43;;;;;;;124.05;54.58;;;;;;;6.31;73.83;99227.41;5093939;28;20472;-70
2021/11/12 09:01:09;;;;;;;;;;;;;;;6.24;73.58;99222.97;5093123;28;20169;-69
2021/11/12 09:03:36;;;;;;;106.07;49.28;;;;;;;6.11;73.23;99223.28;5093414;28;20419;-70
2021/11/12 09:06:02;;;;;;;108.07;49.47;;;;;;;6.12;73.22;99216.78;5093252;28;20027;-68
2021/11/12 09:08:27;;;;;;;118.03;53.00;;;;;;;6.15;73.31;99213.56;5093468;28;20024;-68
2021/11/12 09:10:53;;;;;;;101.32;46.65;;;;;;;6.20;73.55;99215.53;5100035;28;20020;-69
2021/11/12 09:13:24;;;;;;;102.97;47.13;;;;;;;6.19;73.64;99211.16;5111733;28;20426;-70
2021/11/12 09:15:58;;;;;;;104.32;47.28;;;;;;;6.21;73.62;99218.00;5106456;28;20024;-69
2021/11/12 09:18:23;;;;;;;102.40;47.78;;;;;;;6.22;73.32;99214.22;5106308;28;20063;-69
2021/11/12 09:20:53;;;;;;;103.03;47.90;;;;;;;6.22;73.33;99208.78;5092812;28;20067;-69
2021/11/12 09:23:19;;;;;;;115.35;50.75;;;;;;;6.23;73.85;99206.84;5093495;28;20024;-69
2021/11/12 09:25:45;;;;;;;103.53;46.25;;;;;;;6.30;74.06;99206.69;5101937;28;20528;-68
2021/11/12 09:28:12;;;;;;;131.75;59.13;;;;;;;6.25;73.19;99196.53;5105228;28;20404;-68
2021/11/12 09:30:38;;;;;;;115.25;51.17;;;;;;;6.24;73.85;99211.22;5092633;28;20104;-68
2021/11/12 09:33:05;;;;;;;127.10;55.33;;;;;;;6.18;73.69;99206.78;5074181;28;20117;-69
2021/11/12 09:35:31;;;;;;;109.43;48.92;;;;;;;6.24;73.37;99200.34;5091746;28;20018;-69
2021/11/12 09:37:56;;;;;;;108.68;49.35;;;;;;;6.27;73.61;99204.47;5095445;28;20031;-69
2021/11/12 09:40:22;;;;;;;106.40;48.08;;;;;;;6.33;73.84;99198.00;5091729;28;20401;-69
2021/11/12 09:42:49;;;;;;;84.50;38.83;;;;;;;6.38;73.40;99198.91;5073419;28;20653;-69
2021/11/12 09:45:16;;;;;;;73.70;34.85;;;;;;;6.44;73.46;99188.09;5098664;28;20066;-69
2021/11/12 09:47:42;;;;;;;69.45;29.80;;;;;;;6.46;73.39;99184.03;5111569;28;20431;-69
2021/11/12 09:50:12;;;;;;;75.82;32.40;;;;;;;6.45;73.36;99189.75;5098387;28;20035;-69
2021/11/12 09:52:38;;;;;;;66.38;29.60;;;;;;;6.49;73.12;99182.72;5094569;28;20099;-69
2021/11/12 09:55:05;;;;;;;75.00;34.55;;;;;;;6.55;73.26;99182.53;5110942;28;20111;-69
2021/11/12 09:57:30;;;;;;;74.28;34.80;;;;;;;6.60;73.41;99180.94;5093769;28;20173;-69
2021/11/12 09:59:59;;;;;;;72.70;32.80;;;;;;;6.58;73.01;99177.66;5101470;28;20515;-69
2021/11/12 10:02:30;;;;;;;66.32;30.75;;;;;;;6.58;73.15;99169.47;5096784;28;20024;-69
2021/11/12 10:04:56;;;;;;;56.35;26.92;;;;;;;6.58;72.81;99167.56;5097278;28;20024;-68
2021/11/12 10:07:23;;;;;;;63.38;28.63;;;;;;;6.55;72.72;99166.19;5082482;28;20114;-69
2021/11/12 10:10:08;;;;;;;74.68;30.40;;;;;;;6.58;72.97;99164.84;5106025;28;20111;-70
2021/11/12 10:12:40;;;;;;;83.18;35.17;;;;;;;6.46;72.08;99172.31;5099643;28;20032;-69
2021/11/12 10:15:21;;;;;;;69.85;31.23;;;;;;;6.32;72.02;99169.94;5103848;28;20059;-69
2021/11/12 10:17:49;;;;;;;82.07;35.17;;;;;;;6.20;72.17;99167.34;5102548;28;20035;-69
2021/11/12 10:20:17;;;;;;;112.10;41.95;;;;;;;6.12;72.37;99159.56;5098098;28;20028;-69
2021/11/12 10:22:46;;;;;;;77.65;35.15;;;;;;;6.11;72.84;99161.47;5104011;28;20046;-69
2021/11/12 10:25:12;;;;;;;71.28;33.05;;;;;;;6.18;72.63;99155.88;5090824;28;20054;-70
2021/11/12 10:27:43;;;;;;;78.10;36.75;;;;;;;6.28;72.82;99152.44;5092487;28;20085;-69
2021/11/12 10:30:19;;;;;;;67.03;30.50;;;;;;;6.37;72.74;99152.84;5054290;28;20155;-68
2021/11/12 10:32:45;;;;;;;73.70;35.50;;;;;;;6.43;72.64;99149.09;5049506;28;20116;-68
2021/11/12 10:35:24;;;;;;;69.47;32.67;;;;;;;6.42;72.23;99150.19;5052875;28;20492;-68
2021/11/12 10:37:50;;;;;;;73.45;36.55;;;;;;;6.31;71.96;99146.50;5044547;28;20500;-67
2021/11/12 10:40:19;;;;;;;86.75;39.63;;;;;;;6.18;72.09;99147.69;5051598;28;20031;-66
2021/11/12 10:42:53;;;;;;;73.82;36.45;;;;;;;6.11;72.13;99150.56;5049287;28;20330;-67
2021/11/12 10:45:23;;;;;;;62.55;32.40;;;;;;;6.11;72.00;99149.75;5052219;28;20042;-66
2021/11/12 10:47:52;;;;;;;60.08;28.58;;;;;;;6.16;72.23;99149.00;5052419;28;20086;-68
2021/11/12 10:50:21;;;;;;;57.90;27.45;;;;;;;6.24;72.16;99143.13;5051951;28;20509;-67
2021/11/12 10:52:48;;;;;;;54.70;25.70;;;;;;;6.30;72.71;99142.13;5051876;28;20056;-68
2021/11/12 10:55:17;;;;;;;58.35;28.50;;;;;;;6.37;72.15;99137.31;5049034;28;20025;-68
2021/11/12 10:57:52;;;;;;;48.58;22.85;;;;;;;6.37;72.25;99128.31;5055693;28;20032;-68
2021/11/12 11:00:28;;;;;;;48.55;24.38;;;;;;;6.22;71.80;99127.06;5057156;28;20174;-68
2021/11/12 11:02:58;;;;;;;51.97;24.80;;;;;;;6.14;71.47;99132.91;5051615;28;20036;-67
2021/11/12 11:05:28;;;;;;;44.95;21.73;;;;;;;6.17;72.09;99128.84;5051045;28;20055;-67
2021/11/12 11:08:01;;;;;;;84.28;35.20;;;;;;;6.23;72.24;99130.59;5055264;28;20093;-68
2021/11/12 11:10:28;;;;;;;72.88;33.20;;;;;;;6.28;72.14;99118.94;5053598;28;20033;-67
2021/11/12 11:13:16;;;;;;;57.97;28.73;;;;;;;6.40;72.03;99116.91;5051965;28;20037;-67
2021/11/12 11:15:45;;;;;;;49.42;23.65;;;;;;;6.42;72.12;99106.59;5052606;28;20036;-68
2021/11/12 11:21:24;;;;;;;41.30;20.73;;;;;;;6.52;71.95;99105.91;5050028;28;20037;-68
2021/11/12 11:23:59;;;;;;;62.08;30.05;;;;;;;6.55;71.99;99110.84;5050507;28;20041;-69
2021/11/12 11:26:45;;;;;;;60.25;26.80;;;;;;;6.55;71.83;99110.84;5054238;28;20083;-68
2021/11/12 11:29:20;;;;;;;107.15;44.25;;;;;;;6.45;71.51;99097.91;5074044;28;20313;-68
2021/11/12 11:31:46;;;;;;;83.53;32.45;;;;;;;6.39;71.38;99091.59;5090813;28;20080;-68
2021/11/12 11:34:12;;;;;;;59.70;27.17;;;;;;;6.42;71.46;99095.69;5091262;28;20499;-68
2021/11/12 11:36:44;;;;;;;55.72;23.73;;;;;;;6.49;71.67;99092.78;5090532;28;20032;-68
2021/11/12 11:39:12;;;;;;;63.97;28.77;;;;;;;6.48;71.38;99094.69;5071930;28;20035;-68
2021/11/12 11:41:38;;;;;;;57.50;26.58;;;;;;;6.48;71.53;99093.88;5090363;28;20020;-68
2021/11/12 11:44:05;;;;;;;60.25;29.10;;;;;;;6.49;71.46;99087.34;5090920;28;20221;-67
2021/11/12 11:46:38;;;;;;;55.13;27.65;;;;;;;6.52;71.56;99084.13;5091371;28;20496;-68
2021/11/12 11:49:10;;;;;;;53.65;25.10;;;;;;;6.53;71.35;99089.28;5091061;28;20516;-68
2021/11/12 11:51:50;;;;;;;55.42;25.95;;;;;;;6.52;71.21;99084.94;5089640;28;20016;-68
2021/11/12 11:54:16;;;;;;;54.20;25.73;;;;;;;6.60;71.70;99086.38;5073120;28;20016;-69
2021/11/12 11:56:47;;;;;;;57.03;27.40;;;;;;;6.65;71.41;99078.25;5091570;28;20048;-69
2021/11/12 11:59:24;;;;;;;54.15;27.40;;;;;;;6.71;71.43;99076.44;5091466;28;20109;-69
2021/11/12 12:01:53;;;;;;;58.28;28.65;;;;;;;6.75;71.26;99076.72;5091814;28;20028;-68
2021/11/12 12:04:18;;;;;;;56.08;27.02;;;;;;;6.73;71.27;99074.25;5091345;28;20035;-68
2021/11/12 12:07:14;;;;;;;61.15;29.65;;;;;;;6.74;71.50;99062.25;5091185;28;20380;-67
2021/11/12 12:09:40;;;;;;;70.55;32.00;;;;;;;6.81;71.51;99062.88;5081203;28;20149;-67
2021/11/12 12:12:06;;;;;;;67.28;30.55;;;;;;;6.88;71.29;99050.97;5091354;28;20036;-70
2021/11/12 12:14:33;;;;;;;74.28;34.58;;;;;;;6.92;71.44;99052.94;5073020;28;20020;-69
2021/11/12 12:16:59;;;;;;;72.53;35.35;;;;;;;6.93;71.62;99056.47;5091706;28;20040;-73
2021/11/12 12:35:02;;;;;;;53.45;26.92;;;;;;;6.70;71.00;99044.78;5089417;28;20089;-72
2021/11/12 12:38:10;;;;;;;65.32;31.55;;;;;;;6.64;70.93;99038.44;5092907;28;20031;-72
2021/11/12 13:25:33;;;;;;;68.80;33.80;;;;;;;6.48;70.96;99012.13;5094582;28;20063;-72
2021/11/12 13:28:23;;;;;;;58.35;29.73;;;;;;;6.46;70.66;99017.00;5093114;28;20027;-72
2021/11/12 13:30:50;;;;;;;;;;;;;;;6.39;70.69;99017.19;5073806;28;20464;-72
2021/11/12 13:33:41;;;;;;;69.78;33.25;;;;;;;6.39;71.21;99018.03;5106819;28;19920;-71
2021/11/12 13:36:07;;;;;;;69.35;33.33;;;;;;;6.43;71.27;99021.03;5092884;28;20035;-73
2021/11/12 13:38:44;;;;;;;58.08;29.05;;;;;;;6.39;71.10;99023.47;5092485;28;20028;-72
2021/11/12 13:41:12;;;;;;;56.75;28.48;;;;;;;6.35;71.13;99018.75;5094173;28;20092;-72
2021/11/12 13:43:39;;;;;;;57.80;29.45;;;;;;;6.28;70.63;99012.72;5087415;28;20024;-72
2021/11/12 13:46:05;;;;;;;62.78;29.08;;;;;;;6.20;70.85;99014.81;5098097;28;20110;-72
2021/11/12 13:48:44;;;;;;;57.97;27.50;;;;;;;6.14;71.12;99004.91;5093425;28;20031;-72
2021/11/12 13:51:11;;;;;;;56.20;28.73;;;;;;;6.07;71.41;98996.94;5097396;28;20504;-73
2021/11/12 13:53:37;;;;;;;59.95;29.00;;;;;;;6.05;71.30;98995.53;5091597;28;20306;-73
2021/11/12 13:56:07;;;;;;;53.63;27.27;;;;;;;6.03;71.33;98992.25;5091204;28;20039;-71
2021/11/12 13:58:33;;;;;;;54.60;28.55;;;;;;;5.97;71.34;98997.59;5082136;28;20031;-72
2021/11/12 14:00:59;;;;;;;57.80;29.00;;;;;;;5.92;71.73;99002.16;5092029;28;20024;-74
2021/11/12 14:03:40;;;;;;;63.22;31.17;;;;;;;5.93;71.69;99007.34;5091193;28;20032;-73
2021/11/12 14:06:11;;;;;;;66.72;31.25;;;;;;;5.97;71.89;99007.66;5092147;28;20416;-73
2021/11/12 14:08:40;;;;;;;54.95;27.13;;;;;;;5.95;71.58;98999.72;5090331;28;20066;-74
2021/11/12 14:11:29;;;;;;;65.88;31.40;;;;;;;5.99;71.71;98999.22;5091674;28;20055;-73
2021/11/12 14:14:05;;;;;;;60.87;31.17;;;;;;;6.07;71.85;99001.56;5089626;28;20035;-73
2021/11/12 14:16:42;;;;;;;68.15;32.30;;;;;;;6.13;71.72;98994.25;5090450;28;20832;-73
2021/11/12 14:27:17;;;;;;;98.38;46.92;;;;;;;6.32;71.68;98981.13;5090429;28;20043;-73
2021/11/12 14:38:16;;;;;;;62.92;30.98;;;;;;;6.43;71.69;98985.63;5091172;28;20499;-68
2021/11/12 14:46:50;;;;;;;68.70;36.25;;;;;;;6.45;71.40;98978.00;5089419;28;20046;-68
2021/11/12 14:54:30;;;;;;;76.70;40.60;;;;;;;6.28;71.53;98956.31;5091401;28;20071;-68
2021/11/12 14:56:58;;;;;;;73.10;40.45;;;;;;;6.30;71.50;98956.06;5090311;28;20035;-68
2021/11/12 14:59:23;;;;;;;96.80;49.85;;;;;;;6.33;71.58;98970.00;5089216;28;20472;-68
2021/11/12 15:01:49;;;;;;;83.78;40.08;;;;;;;6.37;71.67;98962.13;5089766;28;20024;-68
2021/11/12 15:04:16;;;;;;;75.13;38.47;;;;;;;6.37;71.62;98965.69;5071346;28;20052;-68
2021/11/12 15:06:42;;;;;;;89.50;41.65;;;;;;;6.37;71.55;98962.97;5090753;28;20024;-68
2021/11/12 15:11:34;;;;;;;87.95;38.75;;;;;;;6.38;71.34;98966.50;5089796;28;20024;-68
2021/11/12 15:14:07;;;;;;;70.78;33.60;;;;;;;6.35;71.50;98956.94;5089425;28;20069;-69
2021/11/12 15:16:35;;;;;;;68.25;31.00;;;;;;;6.32;71.25;98962.06;5089061;28;20543;-69
2021/11/12 15:19:01;;;;;;;72.47;33.75;;;;;;;6.30;71.29;98959.59;5089266;28;20059;-68
2021/11/12 15:21:34;;;;;;;83.63;37.78;;;;;;;6.35;71.77;98956.09;5089102;28;20052;-68
2021/11/12 15:24:06;;;;;;;94.82;44.15;;;;;;;6.30;71.45;98956.06;5086472;28;20012;-67
2021/11/12 15:29:07;;;;;;;85.22;40.35;;;;;;;6.28;71.66;98959.03;5089117;28;20086;-66
2021/11/12 15:31:57;;;;;;;93.13;46.22;;;;;;;6.26;71.19;98953.03;5089080;28;20030;-66
2021/11/12 15:34:23;;;;;;;94.63;48.50;;;;;;;6.17;71.30;98963.56;5088068;28;20024;-67
2021/11/12 15:44:53;;;;;;;97.40;44.25;;;;;;;6.16;71.73;98955.63;5085696;28;20071;-67
2021/11/12 15:49:44;;;;;;;99.03;44.17;;;;;;;6.17;71.76;98957.28;5087773;28;20044;-67
2021/11/12 15:52:14;;;;;;;103.88;46.42;;;;;;;6.19;71.39;98961.41;5088239;28;20028;-67
2021/11/12 15:55:28;;;;;;;107.38;46.70;;;;;;;6.21;71.58;98963.84;5084640;28;20024;-68
2021/11/12 16:12:59;;;;;;;88.40;41.58;;;;;;;6.27;71.49;98972.94;5044437;28;20031;-67
2021/11/12 16:15:40;;;;;;;90.68;42.80;;;;;;;6.25;71.48;98970.44;5091736;28;20119;-67
2021/11/12 16:26:12;;;;;;;85.05;40.50;;;;;;;6.15;71.49;98968.44;5094101;28;20020;-72
2021/11/12 16:31:18;;;;;;;82.80;39.90;;;;;;;6.12;71.19;98968.94;5092631;28;20512;-72
2021/11/12 16:33:44;;;;;;;86.88;39.88;;;;;;;6.14;71.71;98968.66;5093477;28;20028;-72
2021/11/12 16:36:10;;;;;;;91.50;42.78;;;;;;;6.14;71.21;98965.94;5094558;28;20484;-72
2021/11/12 16:38:37;;;;;;;87.68;40.60;;;;;;;6.18;71.70;98969.81;5093793;28;20059;-73
2021/11/12 16:41:15;;;;;;;84.75;39.72;;;;;;;6.20;71.72;98965.78;5090890;28;20085;-71
2021/11/12 16:49:15;;;;;;;96.07;43.45;;;;;;;6.25;71.99;98965.84;5092038;28;20036;-73
2021/11/12 17:00:21;;;;;;;96.78;43.00;;;;;;;5.91;71.34;98973.28;5078266;28;20114;-72
2021/11/12 17:05:50;;;;;;;87.47;39.42;;;;;;;5.68;71.82;98972.44;5092490;28;20020;-72
2021/11/12 17:11:01;;;;;;;77.20;35.75;;;;;;;5.49;71.85;98975.44;5091750;28;20054;-72
2021/11/12 17:45:49;;;;;;;294.52;121.40;;;;;;;5.19;72.83;98941.28;5092698;28;20043;-74
2021/11/12 17:48:21;;;;;;;273.55;128.13;;;;;;;5.20;72.97;98929.34;5091954;28;20393;-72
2021/11/12 18:06:58;;;;;;;;;;;;;;;5.16;73.91;98939.06;5093599;28;20036;-74
2021/11/12 21:48:16;;;;;;;91.13;37.28;;;;;;;4.94;75.01;98846.56;5059990;28;20043;-70
2021/11/12 21:50:42;;;;;;;84.75;35.15;;;;;;;4.97;75.10;98847.97;5058467;28;20040;-69
2021/11/12 21:53:08;;;;;;;82.53;33.17;;;;;;;5.00;75.36;98847.47;5066197;28;20020;-69
2021/11/12 21:55:34;;;;;;;83.28;34.75;;;;;;;5.00;75.26;98851.03;5065254;28;20108;-69
2021/11/12 21:58:01;;;;;;;85.28;35.40;;;;;;;4.99;74.94;98856.69;5045186;28;20076;-69
2021/11/12 22:00:28;;;;;;;77.32;33.40;;;;;;;5.00;75.01;98845.59;5063944;28;20044;-69